Time;durP1;ratioP1;P1;durP2;ratioP2;P2;SDS_P1;SDS_P2;PMS_P1;PMS_P2;Temp;Humidity;BMP_temperature;BMP_pressure;BME280_temperature;BME280_humidity;BME280_pressure;Samples;Min_cycle;Max_cycle;Signal;HPM_P1;HPM_P2
2022/05/05 00:01:03;;;;;;;6.40;4.43;;;;;;;-145.69;100.00;71935.72;5073891;28;20198;-78
2022/05/05 00:03:31;;;;;;;7.87;5.20;;;;;;;-145.69;100.00;71931.72;5073929;28;20256;-78
2022/05/05 00:05:57;;;;;;;6.57;4.77;;;;;;;-145.69;100.00;71929.75;5074073;28;20210;-78
2022/05/05 00:08:24;;;;;;;6.23;4.47;;;;;;;-145.69;100.00;71923.78;5073980;28;20230;-77
2022/05/05 00:16:18;;;;;;;6.23;4.40;;;;;;;-145.69;100.00;71947.66;5073756;28;20247;-78
2022/05/05 00:18:46;;;;;;;6.40;4.13;;;;;;;-145.69;100.00;71953.63;5073830;28;20611;-78
2022/05/05 00:21:12;;;;;;;6.17;4.57;;;;;;;-145.69;100.00;71947.66;5073752;28;20199;-78
2022/05/05 00:23:39;;;;;;;5.63;4.33;;;;;;;-145.69;100.00;71945.66;5073658;28;20202;-77
2022/05/05 00:26:05;;;;;;;5.17;3.93;;;;;;;-145.69;100.00;71951.63;5073485;28;20195;-78
2022/05/05 00:28:32;;;;;;;8.67;3.83;;;;;;;-145.69;100.00;71951.63;5073045;28;20688;-77
2022/05/05 00:30:58;;;;;;;7.27;4.87;;;;;;;-145.69;100.00;71949.66;5072812;28;20222;-77
2022/05/05 00:33:24;;;;;;;11.97;5.00;;;;;;;-145.69;100.00;71939.69;5072288;28;20684;-77
2022/05/05 00:35:52;;;;;;;7.57;4.70;;;;;;;-145.69;100.00;71939.69;5073551;28;20210;-77
2022/05/05 00:38:19;;;;;;;7.33;4.57;;;;;;;-145.69;100.00;71937.69;5073390;28;20203;-77
2022/05/05 00:40:45;;;;;;;6.53;4.70;;;;;;;-145.69;100.00;71933.72;5073327;28;20198;-77
2022/05/05 00:43:12;;;;;;;9.37;4.30;;;;;;;-145.69;100.00;71935.72;5073267;28;20546;-77
2022/05/05 00:45:39;;;;;;;8.67;4.17;;;;;;;-145.69;100.00;71933.72;5072943;28;20592;-77
2022/05/05 00:48:06;;;;;;;6.97;4.47;;;;;;;-145.69;100.00;71935.72;5073128;28;20214;-76
2022/05/05 00:50:33;;;;;;;6.23;4.70;;;;;;;-145.69;100.00;71935.72;5073070;28;20574;-76
2022/05/05 00:53:01;;;;;;;10.00;4.70;;;;;;;-145.69;100.00;71933.72;5073153;28;20202;-77
2022/05/05 00:55:29;;;;;;;5.33;4.20;;;;;;;-145.69;100.00;71939.69;5072947;28;20205;-77
2022/05/05 00:57:55;;;;;;;6.03;4.30;;;;;;;-145.69;100.00;71943.69;5073369;28;20205;-77
2022/05/05 01:00:22;;;;;;;8.03;4.17;;;;;;;-145.69;100.00;71949.66;5073156;28;20199;-77
2022/05/05 01:02:50;;;;;;;7.23;4.60;;;;;;;-145.69;100.00;71955.63;5073167;28;20202;-77
2022/05/05 01:05:17;;;;;;;6.93;4.53;;;;;;;-145.69;100.00;71961.59;5073157;28;20207;-77
2022/05/05 01:07:44;;;;;;;6.30;4.10;;;;;;;-145.69;100.00;71961.59;5072921;28;20260;-77
2022/05/05 01:10:12;;;;;;;5.30;4.27;;;;;;;-145.69;100.00;71965.56;5072863;28;20256;-76
2022/05/05 01:12:39;;;;;;;5.83;4.23;;;;;;;-145.69;100.00;71959.59;5073087;28;20195;-76
2022/05/05 01:15:06;;;;;;;9.13;4.53;;;;;;;-145.69;100.00;71967.56;5072551;28;20202;-77
2022/05/05 01:17:33;;;;;;;7.17;4.37;;;;;;;-145.69;100.00;71963.56;5072941;28;20198;-77
2022/05/05 01:20:10;;;;;;;8.67;4.60;;;;;;;-145.69;100.00;71963.56;5072903;28;20202;-77
2022/05/05 01:22:38;;;;;;;8.60;5.17;;;;;;;-145.69;100.00;71951.63;5072786;28;20247;-77
2022/05/05 01:30:33;;;;;;;11.93;6.33;;;;;;;-145.69;100.00;71943.69;5068629;28;20719;-77
2022/05/05 01:32:59;;;;;;;9.07;6.20;;;;;;;-145.69;100.00;71947.66;5069802;28;20198;-77
2022/05/05 01:35:26;;;;;;;10.30;6.77;;;;;;;-145.69;100.00;71941.69;5072445;28;20210;-77
2022/05/05 01:37:54;;;;;;;8.10;4.93;;;;;;;-145.69;100.00;71957.59;5072196;28;20661;-77
2022/05/05 01:40:20;;;;;;;8.10;4.70;;;;;;;-145.69;100.00;71955.63;5072452;28;20202;-77
2022/05/05 01:42:46;;;;;;;7.63;5.20;;;;;;;-145.69;100.00;71959.59;5072478;28;20256;-77
2022/05/05 01:45:13;;;;;;;9.97;6.77;;;;;;;-145.69;100.00;71953.63;5072328;28;20264;-77
2022/05/05 01:47:40;;;;;;;12.07;7.30;;;;;;;-145.69;100.00;71947.66;5072522;28;20253;-77
2022/05/05 01:50:07;;;;;;;9.53;6.60;;;;;;;-145.69;100.00;71953.63;5072244;28;20234;-77
2022/05/05 01:52:33;;;;;;;8.80;5.83;;;;;;;-145.69;100.00;71961.59;5062196;28;20199;-77
2022/05/05 01:55:01;;;;;;;9.13;4.80;;;;;;;-145.69;100.00;71967.56;5072322;28;20747;-77
2022/05/05 01:57:28;;;;;;;13.17;5.63;;;;;;;-145.69;100.00;71967.56;5072465;28;20206;-77
2022/05/05 01:59:54;;;;;;;7.67;5.27;;;;;;;-145.69;100.00;71967.56;5072571;28;20229;-77
2022/05/05 02:02:20;;;;;;;10.60;5.07;;;;;;;-145.69;100.00;71973.53;5072383;28;20565;-77
2022/05/05 02:04:47;;;;;;;6.57;4.87;;;;;;;-145.69;100.00;71987.47;5072564;28;20248;-77
2022/05/05 02:07:13;;;;;;;10.97;5.63;;;;;;;-145.69;100.00;71969.53;5072432;28;20203;-77
2022/05/05 02:09:40;;;;;;;8.90;6.10;;;;;;;-145.69;100.00;71967.56;5072368;28;20227;-77
2022/05/05 02:12:09;;;;;;;9.60;6.50;;;;;;;-145.69;100.00;71963.56;5072342;28;20202;-76
2022/05/05 02:14:36;;;;;;;8.63;5.83;;;;;;;-145.69;100.00;71963.56;5071867;28;20209;-77
2022/05/05 02:17:02;;;;;;;9.67;6.23;;;;;;;-145.69;100.00;71973.53;5072100;28;20596;-77
2022/05/05 02:19:29;;;;;;;8.97;6.20;;;;;;;-145.69;100.00;71975.50;5072437;28;20229;-77
2022/05/05 02:21:56;;;;;;;11.03;5.90;;;;;;;-145.69;100.00;71973.53;5072069;28;20734;-77
2022/05/05 02:24:22;;;;;;;11.50;6.20;;;;;;;-145.69;100.00;71975.50;5072360;28;20256;-77
2022/05/05 02:26:49;;;;;;;10.17;5.60;;;;;;;-145.69;100.00;71963.56;5073319;28;20210;-77
2022/05/05 02:29:16;;;;;;;11.50;6.10;;;;;;;-145.69;100.00;71965.56;5075408;28;20226;-77
2022/05/05 02:31:43;;;;;;;9.87;6.77;;;;;;;-145.69;100.00;71963.56;5075920;28;20201;-77
2022/05/05 02:34:09;;;;;;;18.47;8.40;;;;;;;-145.69;100.00;71959.59;5075747;28;20249;-77
2022/05/05 02:39:20;;;;;;;13.70;8.30;;;;;;;-145.69;100.00;71963.56;5073399;28;20288;-77
2022/05/05 02:41:46;;;;;;;9.43;5.57;;;;;;;-145.69;100.00;71959.59;5073737;28;20210;-77
2022/05/05 02:44:13;;;;;;;11.87;5.90;;;;;;;-145.69;100.00;71963.56;5075306;28;20561;-77
2022/05/05 02:46:41;;;;;;;15.83;6.23;;;;;;;-145.69;100.00;71963.56;5075331;28;20199;-78
2022/05/05 02:49:07;;;;;;;15.47;7.40;;;;;;;-145.69;100.00;71969.53;5075040;28;20708;-76
2022/05/05 02:51:34;;;;;;;17.10;8.80;;;;;;;-145.69;100.00;71965.56;5075051;28;20222;-77
2022/05/05 02:56:50;;;;;;;15.77;9.27;;;;;;;-145.69;100.00;71953.63;5054529;28;20565;-77
2022/05/05 02:59:16;;;;;;;24.37;10.83;;;;;;;-145.69;100.00;71953.63;5075067;28;20203;-77
2022/05/05 03:01:44;;;;;;;23.73;12.03;;;;;;;-145.69;100.00;71947.66;5075244;28;20206;-77
2022/05/05 03:04:10;;;;;;;19.40;10.53;;;;;;;-145.69;100.00;71941.69;5074924;28;20203;-77
2022/05/05 03:06:37;;;;;;;23.43;10.47;;;;;;;-145.69;100.00;71943.69;5075139;28;20202;-77
2022/05/05 03:09:04;;;;;;;20.47;10.73;;;;;;;-145.69;100.00;71939.69;5074836;28;20356;-77
2022/05/05 03:11:30;;;;;;;22.30;11.10;;;;;;;-145.69;100.00;71941.69;5075147;28;20199;-77
2022/05/05 03:13:57;;;;;;;22.93;10.83;;;;;;;-145.69;100.00;71935.72;5075051;28;20210;-77
2022/05/05 03:16:23;;;;;;;21.60;10.00;;;;;;;-145.69;100.00;71939.69;5074635;28;20203;-77
2022/05/05 03:18:51;;;;;;;19.40;10.43;;;;;;;-145.69;100.00;71943.69;5074754;28;20661;-77
2022/05/05 03:21:17;;;;;;;18.83;9.03;;;;;;;-145.69;100.00;71949.66;5074660;28;20229;-77
2022/05/05 03:23:44;;;;;;;19.00;9.10;;;;;;;-145.69;100.00;71951.63;5074866;28;20220;-77
2022/05/05 03:26:10;;;;;;;18.80;9.83;;;;;;;-145.69;100.00;71959.59;5074816;28;20206;-77
2022/05/05 03:28:37;;;;;;;20.10;9.97;;;;;;;-145.69;100.00;71959.59;5074557;28;20210;-77
2022/05/05 03:31:05;;;;;;;23.50;11.10;;;;;;;-145.69;100.00;71947.66;5074600;28;20203;-77
2022/05/05 03:33:32;;;;;;;22.00;11.30;;;;;;;-145.69;100.00;71953.63;5074245;28;20194;-77
2022/05/05 03:36:00;;;;;;;26.87;12.70;;;;;;;-145.69;100.00;71955.63;5074463;28;20203;-77
2022/05/05 03:38:27;;;;;;;23.57;12.10;;;;;;;-145.69;100.00;71959.59;5074051;28;20202;-77
2022/05/05 03:40:54;;;;;;;16.90;9.60;;;;;;;-145.69;100.00;71967.56;5074471;28;20203;-77
2022/05/05 03:43:21;;;;;;;23.10;10.97;;;;;;;-145.69;100.00;71967.56;5074363;28;20275;-77
2022/05/05 03:45:47;;;;;;;17.43;8.77;;;;;;;-145.69;100.00;71961.59;5074372;28;20538;-77
2022/05/05 03:48:14;;;;;;;18.80;10.67;;;;;;;-145.69;100.00;71961.59;5061697;28;20669;-77
2022/05/05 03:50:40;;;;;;;19.97;11.20;;;;;;;-145.69;100.00;71965.56;5053839;28;20643;-77
2022/05/05 03:53:08;;;;;;;19.13;10.80;;;;;;;-145.69;100.00;71961.59;5054270;28;20199;-77
2022/05/05 03:55:35;;;;;;;21.67;10.57;;;;;;;-145.69;100.00;71961.59;5054187;28;20199;-77
2022/05/05 03:58:01;;;;;;;26.47;11.10;;;;;;;-145.69;100.00;71971.53;5054112;28;20203;-77
2022/05/05 04:00:28;;;;;;;18.67;10.17;;;;;;;-145.69;100.00;71971.53;5053879;28;20204;-77
2022/05/05 04:05:38;;;;;;;12.93;7.60;;;;;;;-145.69;100.00;72007.34;5073893;28;20613;-77
2022/05/05 04:08:06;;;;;;;15.43;7.17;;;;;;;-145.69;100.00;72027.25;5071637;28;20199;-77
2022/05/05 04:10:34;;;;;;;15.90;7.93;;;;;;;-145.69;100.00;72041.19;5073370;28;20258;-77
2022/05/05 04:13:00;;;;;;;13.07;7.43;;;;;;;-145.69;100.00;72041.19;5073774;28;20534;-77
2022/05/05 04:15:27;;;;;;;15.23;7.93;;;;;;;-145.69;100.00;72035.22;5073524;28;20206;-77
2022/05/05 04:17:53;;;;;;;14.53;8.60;;;;;;;-145.69;100.00;72037.22;5073768;28;20203;-77
2022/05/05 04:20:20;;;;;;;12.70;7.90;;;;;;;-145.69;100.00;72025.28;5073757;28;20238;-77
2022/05/05 04:22:46;;;;;;;16.27;9.97;;;;;;;-145.69;100.00;72023.28;5073493;28;20248;-76
2022/05/05 04:25:13;;;;;;;19.70;10.23;;;;;;;-145.69;100.00;72023.28;5073537;28;20202;-76
2022/05/05 04:27:42;;;;;;;18.07;10.17;;;;;;;-145.69;100.00;72023.28;5073433;28;20290;-77
2022/05/05 04:30:10;;;;;;;19.37;10.53;;;;;;;-145.69;100.00;72025.28;5073168;28;20226;-77
2022/05/05 04:32:36;;;;;;;18.27;9.87;;;;;;;-145.69;100.00;72027.25;5072672;28;20198;-77
2022/05/05 04:35:04;;;;;;;20.33;9.70;;;;;;;-145.69;100.00;72029.25;5073435;28;20207;-77
2022/05/05 04:37:33;;;;;;;15.80;8.93;;;;;;;-145.69;100.00;72023.28;5073226;28;20206;-77
2022/05/05 04:39:59;;;;;;;13.30;8.03;;;;;;;-145.69;100.00;72027.25;5073289;28;20226;-77
2022/05/05 04:42:26;;;;;;;13.37;8.30;;;;;;;-145.69;100.00;72017.31;5073092;28;20209;-77
2022/05/05 04:44:54;;;;;;;17.57;9.77;;;;;;;-145.69;100.00;72017.31;5073089;28;20679;-76
2022/05/05 04:47:20;;;;;;;14.30;8.13;;;;;;;-145.69;100.00;71991.44;5073331;28;20202;-76
2022/05/05 04:49:47;;;;;;;14.43;8.37;;;;;;;-145.69;100.00;71983.47;5072164;28;20693;-77
2022/05/05 04:52:13;;;;;;;13.93;7.47;;;;;;;-145.69;100.00;71967.56;5073253;28;20202;-77
2022/05/05 04:54:40;;;;;;;14.67;7.73;;;;;;;-145.69;100.00;71961.59;5073006;28;20202;-77
2022/05/05 04:57:07;;;;;;;13.43;7.70;;;;;;;-145.69;100.00;71959.59;5073168;28;20203;-76
2022/05/05 04:59:33;;;;;;;10.03;6.53;;;;;;;-145.69;100.00;71931.72;5073387;28;20205;-77
2022/05/05 05:02:02;;;;;;;13.73;7.30;;;;;;;-145.69;100.00;71935.72;5072660;28;20195;-78
2022/05/05 05:04:29;;;;;;;13.27;7.23;;;;;;;-145.69;100.00;71927.75;5072620;28;20294;-78
2022/05/05 05:06:55;;;;;;;10.73;6.70;;;;;;;-145.69;100.00;71917.81;5072529;28;20199;-77
2022/05/05 05:09:21;;;;;;;12.30;6.90;;;;;;;-145.69;100.00;71907.84;5072834;28;20218;-77
2022/05/05 05:11:48;;;;;;;13.87;6.57;;;;;;;-145.69;100.00;71899.88;5072461;28;20278;-77
2022/05/05 05:14:15;;;;;;;11.53;5.47;;;;;;;-145.69;100.00;71874.03;5071182;28;20195;-77
2022/05/05 05:16:41;;;;;;;9.17;5.07;;;;;;;-145.69;100.00;71881.97;5071678;28;20569;-77
2022/05/05 05:19:09;;;;;;;8.63;5.37;;;;;;;-145.69;100.00;71876.00;5072733;28;20206;-77
2022/05/05 05:21:36;;;;;;;8.27;5.60;;;;;;;-145.69;100.00;71858.09;5072682;28;20201;-77
2022/05/05 05:24:03;;;;;;;7.30;5.10;;;;;;;-145.69;100.00;71848.16;5072737;28;20201;-77
2022/05/05 05:26:30;;;;;;;9.03;5.20;;;;;;;-145.69;100.00;71824.25;5072632;28;20199;-78
2022/05/05 05:28:56;;;;;;;7.53;5.10;;;;;;;-145.69;100.00;71826.25;5072840;28;20209;-77
2022/05/05 05:31:23;;;;;;;7.63;5.23;;;;;;;-145.69;100.00;71800.38;5072503;28;20246;-77
2022/05/05 05:33:50;;;;;;;9.27;4.87;;;;;;;-145.69;100.00;71824.25;5072669;28;20653;-77
2022/05/05 05:36:18;;;;;;;8.63;5.27;;;;;;;-145.69;100.00;71820.28;5072512;28;20207;-77
2022/05/05 05:38:45;;;;;;;8.03;5.60;;;;;;;-145.69;100.00;71820.28;5072589;28;20576;-77
2022/05/05 05:41:12;;;;;;;6.83;4.83;;;;;;;-145.69;100.00;71804.38;5072601;28;20206;-77
2022/05/05 05:43:39;;;;;;;9.60;5.90;;;;;;;-145.69;100.00;71796.41;5072668;28;20205;-77
2022/05/05 05:46:05;;;;;;;6.10;4.17;;;;;;;-145.69;100.00;71782.47;5072787;28;20294;-77
2022/05/05 05:48:32;;;;;;;7.70;4.97;;;;;;;-145.69;100.00;71768.53;5055913;28;20196;-77
2022/05/05 05:50:59;;;;;;;8.10;4.43;;;;;;;-145.69;100.00;71752.63;5052495;28;20284;-77
2022/05/05 05:53:27;;;;;;;9.53;4.97;;;;;;;-145.69;100.00;71748.66;5052342;28;20195;-77
2022/05/05 05:55:53;;;;;;;7.23;4.23;;;;;;;-145.69;100.00;71752.63;5052635;28;20199;-78
2022/05/05 05:58:20;;;;;;;8.47;4.07;;;;;;;-145.69;100.00;71756.59;5052583;28;20211;-77
2022/05/05 06:00:46;;;;;;;6.87;3.83;;;;;;;-145.69;100.00;71756.59;5055765;28;20202;-77
2022/05/05 06:05:57;;;;;;;5.83;3.93;;;;;;;-145.69;100.00;71756.59;5076124;28;20461;-77
2022/05/05 06:08:23;;;;;;;6.00;4.03;;;;;;;-145.69;100.00;71772.53;5076231;28;20209;-77
2022/05/05 06:10:51;;;;;;;7.80;4.23;;;;;;;-145.69;100.00;71780.50;5076053;28;20236;-78
2022/05/05 06:13:18;;;;;;;5.80;4.57;;;;;;;-145.69;100.00;71794.41;5076375;28;20210;-77
2022/05/05 06:15:44;;;;;;;6.67;4.70;;;;;;;-145.69;100.00;71800.38;5075967;28;20199;-77
2022/05/05 06:18:10;;;;;;;8.77;5.00;;;;;;;-145.69;100.00;71830.25;5075903;28;20206;-77
2022/05/05 06:20:37;;;;;;;7.40;4.83;;;;;;;-145.69;100.00;71848.16;5075771;28;20248;-78
2022/05/05 06:23:04;;;;;;;10.53;6.30;;;;;;;-145.69;100.00;71854.13;5073742;28;20301;-77
2022/05/05 06:25:30;;;;;;;9.02;6.25;;;;;;;-145.69;100.00;71848.16;5074682;28;20441;-77
2022/05/05 06:27:59;;;;;;;7.90;5.60;;;;;;;-145.69;100.00;71830.25;5075805;28;20206;-77
2022/05/05 06:30:25;;;;;;;7.30;4.80;;;;;;;-145.69;100.00;71838.19;5075870;28;20250;-78
2022/05/05 06:32:51;;;;;;;14.17;7.57;;;;;;;-145.69;100.00;71852.13;5076676;28;20714;-78
2022/05/05 06:35:18;;;;;;;13.47;8.13;;;;;;;-145.69;100.00;71844.16;5075754;28;20198;-78
2022/05/05 06:37:50;;;;;;;11.93;7.60;;;;;;;-145.69;100.00;71840.19;5075852;28;20229;-78
2022/05/05 06:40:17;;;;;;;14.37;6.67;;;;;;;-145.69;100.00;71836.22;5075908;28;20203;-78
2022/05/05 06:42:43;;;;;;;8.87;6.20;;;;;;;-145.69;100.00;71876.00;5075768;28;20260;-78
2022/05/05 06:45:12;;;;;;;9.60;6.33;;;;;;;-145.69;100.00;71874.03;5075756;28;20195;-77
2022/05/05 06:47:38;;;;;;;9.73;5.97;;;;;;;-145.69;100.00;71880.00;5075811;28;20252;-78
2022/05/05 06:50:06;;;;;;;10.47;6.07;;;;;;;-145.69;100.00;71880.00;5075604;28;20701;-78
2022/05/05 06:52:32;;;;;;;10.73;6.90;;;;;;;-145.69;100.00;71893.91;5075804;28;20207;-78
2022/05/05 06:55:00;;;;;;;10.73;6.70;;;;;;;-145.69;100.00;71901.88;5075791;28;20195;-78
2022/05/05 06:57:26;;;;;;;11.60;7.10;;;;;;;-145.69;100.00;71899.88;5075630;28;20205;-78
2022/05/05 06:59:53;;;;;;;17.80;7.53;;;;;;;-145.69;100.00;71901.88;5075536;28;20202;-77
2022/05/05 07:02:22;;;;;;;12.73;8.20;;;;;;;-145.69;100.00;71891.94;5075522;28;20234;-78
2022/05/05 07:07:32;;;;;;;11.23;7.90;;;;;;;-145.69;100.00;71876.00;5075481;28;20248;-77
2022/05/05 07:12:46;;;;;;;10.67;7.37;;;;;;;-145.69;100.00;71868.06;5074457;28;20198;-77
2022/05/05 07:15:13;;;;;;;11.63;8.10;;;;;;;-145.69;100.00;71889.94;5075412;28;20194;-77
2022/05/05 07:17:43;;;;;;;15.33;8.73;;;;;;;-145.69;100.00;71891.94;5075171;28;20223;-77
2022/05/05 07:20:10;;;;;;;13.40;8.27;;;;;;;-145.69;100.00;71889.94;5075056;28;20629;-77
2022/05/05 07:22:37;;;;;;;12.43;8.30;;;;;;;-145.69;100.00;71891.94;5075010;28;20206;-78
2022/05/05 07:25:04;;;;;;;15.47;9.03;;;;;;;-145.69;100.00;71899.88;5073100;28;20199;-78
2022/05/05 07:27:30;;;;;;;14.53;9.53;;;;;;;-145.69;100.00;71919.78;5074574;28;20715;-78
2022/05/05 07:29:57;;;;;;;16.37;9.63;;;;;;;-145.69;100.00;71911.84;5075070;28;20206;-77
2022/05/05 07:32:23;;;;;;;14.43;9.60;;;;;;;-145.69;100.00;71913.81;5071841;28;20198;-78
2022/05/05 07:34:51;;;;;;;13.80;9.27;;;;;;;-145.69;100.00;71907.84;5073772;28;20620;-78
2022/05/05 07:37:17;;;;;;;12.63;8.67;;;;;;;-145.69;100.00;71901.88;5074399;28;20252;-79
2022/05/05 07:39:46;;;;;;;13.07;8.43;;;;;;;-145.69;100.00;71893.91;5074218;28;20206;-78
2022/05/05 07:42:12;;;;;;;12.80;7.80;;;;;;;-145.69;100.00;71885.97;5074341;28;20199;-77
2022/05/05 07:44:39;;;;;;;18.13;10.23;;;;;;;-145.69;100.00;71876.00;5074619;28;20230;-77
2022/05/05 07:47:06;;;;;;;11.93;8.27;;;;;;;-145.69;100.00;71870.03;5074713;28;20207;-78
2022/05/05 07:49:32;;;;;;;12.70;8.30;;;;;;;-145.69;100.00;71876.00;5074368;28;20241;-78
2022/05/05 07:52:00;;;;;;;13.93;9.10;;;;;;;-145.69;100.00;71866.06;5074232;28;20230;-77
2022/05/05 07:54:38;;;;;;;15.17;9.27;;;;;;;-145.69;100.00;71872.03;5071943;28;20191;-77
2022/05/05 07:57:06;;;;;;;14.00;8.37;;;;;;;-145.69;100.00;71856.09;5060191;28;20190;-78
2022/05/05 07:59:33;;;;;;;12.73;8.77;;;;;;;-145.69;100.00;71816.31;5074525;28;20206;-77
2022/05/05 08:01:59;;;;;;;14.40;8.33;;;;;;;-145.69;100.00;71800.38;5074358;28;20228;-77
2022/05/05 08:04:26;;;;;;;11.87;8.23;;;;;;;-145.69;100.00;71826.25;5073437;28;20203;-77
2022/05/05 08:06:52;;;;;;;14.20;9.03;;;;;;;-145.69;100.00;71850.13;5074004;28;20210;-77
2022/05/05 08:09:20;;;;;;;12.13;8.57;;;;;;;-145.69;100.00;71832.22;5074050;28;20199;-77
2022/05/05 08:11:47;;;;;;;14.13;8.83;;;;;;;-145.69;100.00;71812.31;5073942;28;20231;-77
2022/05/05 08:14:13;;;;;;;11.57;7.80;;;;;;;-145.69;100.00;71808.34;5060818;28;20203;-78
2022/05/05 08:16:40;;;;;;;14.03;8.67;;;;;;;-145.69;100.00;71804.38;5073385;28;20650;-77
2022/05/05 08:19:07;;;;;;;16.27;8.43;;;;;;;-145.69;100.00;71812.31;5073634;28;20205;-77
2022/05/05 08:21:34;;;;;;;11.63;7.87;;;;;;;-145.69;100.00;71816.31;5073847;28;20199;-77
2022/05/05 08:29:29;;;;;;;15.83;9.03;;;;;;;-145.69;100.00;71844.16;5072512;28;20210;-77
2022/05/05 08:31:57;;;;;;;13.87;8.97;;;;;;;-145.69;100.00;71852.13;5054415;28;20227;-78
2022/05/05 08:34:27;;;;;;;16.03;8.93;;;;;;;-145.69;100.00;71840.19;5062271;28;20199;-78
2022/05/05 08:36:53;;;;;;;12.23;8.50;;;;;;;-145.69;100.00;71850.13;5073310;28;20684;-77
2022/05/05 08:39:20;;;;;;;13.77;8.80;;;;;;;-145.69;100.00;71844.16;5073326;28;20252;-77
2022/05/05 08:41:48;;;;;;;15.20;9.87;;;;;;;-145.69;100.00;71832.22;5073245;28;20202;-76
2022/05/05 08:44:15;;;;;;;13.93;8.83;;;;;;;-145.69;100.00;71822.28;5072990;28;20206;-77
2022/05/05 08:46:42;;;;;;;14.30;8.80;;;;;;;-145.69;100.00;71800.38;5073441;28;20199;-77
2022/05/05 08:49:08;;;;;;;11.80;8.10;;;;;;;-145.69;100.00;71788.44;5072727;28;20249;-76
2022/05/05 08:51:43;;;;;;;13.73;8.43;;;;;;;-145.69;100.00;71760.59;5072874;28;20230;-77
2022/05/05 08:54:16;;;;;;;11.93;8.50;;;;;;;-145.69;100.00;71754.63;5053729;28;20293;-77
2022/05/05 08:56:42;;;;;;;13.67;8.93;;;;;;;-145.69;100.00;71714.81;5052719;28;20208;-77
2022/05/05 08:59:11;;;;;;;13.03;8.20;;;;;;;-145.69;100.00;71682.97;5053405;28;20231;-77
2022/05/05 09:01:39;;;;;;;13.90;8.60;;;;;;;-145.69;100.00;71649.16;5053857;28;20605;-77
2022/05/05 09:04:06;;;;;;;11.02;7.78;;;;;;;-145.69;100.00;71649.16;5072748;28;20191;-77
2022/05/05 09:06:43;;;;;;;13.10;8.82;;;;;;;-145.69;100.00;71635.22;5072539;28;20282;-77
2022/05/05 09:09:30;;;;;;;13.90;8.32;;;;;;;-145.69;100.00;71629.25;5072514;28;20198;-76
2022/05/05 09:12:14;;;;;;;11.63;7.60;;;;;;;-145.69;100.00;71609.34;5072898;28;20230;-77
2022/05/05 09:14:45;;;;;;;14.23;8.02;;;;;;;-145.69;100.00;71619.28;5072816;28;20194;-76
2022/05/05 09:17:14;;;;;;;12.70;8.23;;;;;;;-145.69;100.00;71551.63;5072969;28;20202;-76
2022/05/05 09:19:42;;;;;;;12.18;7.32;;;;;;;-145.69;100.00;71507.84;5072988;28;20233;-76
2022/05/05 09:22:09;;;;;;;13.07;8.15;;;;;;;-145.69;100.00;71501.88;5073133;28;20260;-76
2022/05/05 09:24:41;;;;;;;13.80;8.23;;;;;;;-145.69;100.00;71541.69;5072120;28;20209;-76
2022/05/05 09:27:33;;;;;;;14.40;8.77;;;;;;;-145.69;100.00;71537.72;5071078;28;20202;-76
2022/05/05 09:30:09;;;;;;;12.27;7.95;;;;;;;-145.69;100.00;71499.91;5065428;28;20242;-76
2022/05/05 09:32:38;;;;;;;12.38;7.75;;;;;;;-145.69;100.00;71442.19;5071353;28;20226;-76
2022/05/05 09:35:08;;;;;;;12.07;8.13;;;;;;;-145.69;100.00;71497.91;5071505;28;20268;-76
2022/05/05 09:37:35;;;;;;;14.13;8.50;;;;;;;-145.69;100.00;71428.25;5075224;28;20198;-76
2022/05/05 09:40:04;;;;;;;11.13;7.38;;;;;;;-145.69;100.00;71456.13;5076270;28;20293;-76
2022/05/05 09:42:41;;;;;;;10.30;6.88;;;;;;;-145.69;98.95;71408.38;5076737;28;20214;-77
2022/05/05 09:45:21;;;;;;;11.18;7.50;;;;;;;-145.69;100.00;71406.38;5076485;28;20187;-76
2022/05/05 09:47:49;;;;;;;8.68;6.03;;;;;;;-145.69;97.49;71350.66;5056743;28;20206;-76
2022/05/05 09:50:18;;;;;;;11.48;6.25;;;;;;;-145.69;96.98;71356.63;5056553;28;20241;-76
2022/05/05 09:58:15;;;;;;;8.43;5.78;;;;;;;-145.69;93.73;71296.94;5076408;28;20244;-76
2022/05/05 10:00:49;;;;;;;7.82;5.80;;;;;;;-145.69;92.90;71334.75;5075353;28;20198;-76
2022/05/05 10:06:17;;;;;;;7.03;4.97;;;;;;;-145.69;97.01;71398.41;5056488;28;20512;-75
2022/05/05 10:08:45;;;;;;;7.53;5.63;;;;;;;-145.69;99.45;71394.44;5056286;28;20210;-76
2022/05/05 10:11:14;;;;;;;8.00;5.65;;;;;;;-145.69;97.66;71444.19;5056004;28;20645;-76
2022/05/05 10:13:41;;;;;;;8.73;5.60;;;;;;;-145.69;96.06;71446.16;5056281;28;20203;-76
2022/05/05 10:16:09;;;;;;;9.70;6.63;;;;;;;-145.69;100.00;71442.19;5073762;28;20653;-76
2022/05/05 10:18:38;;;;;;;9.93;6.57;;;;;;;-145.69;100.00;71392.44;5076051;28;20198;-76
2022/05/05 10:21:06;;;;;;;10.25;6.97;;;;;;;-145.69;97.32;71386.47;5076008;28;20202;-76
2022/05/05 10:23:48;;;;;;;11.68;7.75;;;;;;;-145.69;96.65;71428.25;5076362;28;20202;-77
2022/05/05 10:26:21;;;;;;;12.95;7.22;;;;;;;-145.69;97.19;71402.41;5075954;28;20207;-76
2022/05/05 10:28:47;;;;;;;10.57;7.45;;;;;;;-145.69;96.74;71406.38;5075925;28;20198;-77
2022/05/05 10:31:42;;;;;;;12.40;7.90;;;;;;;-145.69;100.00;71438.22;5075867;28;20227;-75
2022/05/05 10:34:15;;;;;;;9.77;6.97;;;;;;;-145.69;100.00;71476.03;5075877;28;20203;-76
2022/05/05 10:36:58;;;;;;;11.55;7.45;;;;;;;-145.69;100.00;71535.72;5075613;28;20206;-76
2022/05/05 10:39:26;;;;;;;10.43;6.60;;;;;;;-145.69;100.00;71547.66;5075826;28;20560;-77
2022/05/05 10:42:13;;;;;;;8.25;6.50;;;;;;;-145.69;100.00;71525.78;5075625;28;20203;-76
2022/05/05 10:45:12;;;;;;;10.90;7.18;;;;;;;-145.69;100.00;71523.78;5075086;28;20642;-76
2022/05/05 10:48:17;;;;;;;10.35;6.88;;;;;;;-145.69;100.00;71505.88;5074433;28;20198;-76
2022/05/05 10:50:53;;;;;;;11.75;6.95;;;;;;;-145.69;100.00;71521.78;5075032;28;20656;-76
2022/05/05 10:53:41;;;;;;;8.80;6.22;;;;;;;-145.69;100.00;71527.75;5075270;28;20203;-76
2022/05/05 10:56:29;;;;;;;13.32;9.23;;;;;;;-145.69;100.00;71563.56;5072157;28;20316;-76
2022/05/05 10:58:57;;;;;;;14.93;8.70;;;;;;;-145.69;100.00;71583.47;5075338;28;20199;-75
2022/05/05 11:01:23;;;;;;;15.48;10.02;;;;;;;-145.69;100.00;71625.25;5075255;28;20565;-77
2022/05/05 11:04:06;;;;;;;13.88;9.68;;;;;;;-145.69;100.00;71631.25;5075076;28;20268;-77
2022/05/05 11:06:36;;;;;;;17.15;9.82;;;;;;;-145.69;100.00;71643.19;5075341;28;20206;-76
2022/05/05 11:09:04;;;;;;;15.73;10.00;;;;;;;-145.69;100.00;71645.16;5075116;28;20438;-77
2022/05/05 11:11:42;;;;;;;15.52;10.15;;;;;;;-145.69;100.00;71655.13;5074859;28;20262;-76
2022/05/05 11:22:46;;;;;;;18.95;10.60;;;;;;;-145.69;100.00;71633.22;5074882;28;20217;-76
2022/05/05 11:25:15;;;;;;;17.48;10.15;;;;;;;-145.69;100.00;71609.34;5074954;28;20199;-77
2022/05/05 11:27:41;;;;;;;14.30;8.27;;;;;;;-145.69;100.00;71505.88;5074835;28;20206;-76
2022/05/05 11:30:14;;;;;;;17.27;11.70;;;;;;;-145.69;100.00;71545.66;5074889;28;20561;-77
2022/05/05 11:32:43;;;;;;;17.17;11.85;;;;;;;-145.69;100.00;71517.81;5074781;28;20235;-76
2022/05/05 11:35:11;;;;;;;21.88;12.23;;;;;;;-145.69;100.00;71505.88;5074741;28;20660;-76
2022/05/05 11:37:43;;;;;;;16.10;10.75;;;;;;;-145.69;100.00;71470.06;5074526;28;20290;-76
2022/05/05 11:40:14;;;;;;;16.98;9.18;;;;;;;-145.69;100.00;71330.75;5074689;28;20202;-75
2022/05/05 11:44:14;;;;;;;12.32;8.38;;;;;;;-145.69;96.91;71269.06;5074480;28;20233;-77
2022/05/05 11:45:35;;;;;;;12.95;8.60;;;;;;;-145.69;100.00;71326.78;5074068;28;20195;-77
2022/05/05 11:48:15;;;;;;;12.98;9.23;;;;;;;-145.69;100.00;71342.69;5074601;28;20305;-76
2022/05/05 11:50:44;;;;;;;15.98;10.02;;;;;;;-145.69;100.00;71336.72;5074226;28;20226;-76
2022/05/05 11:53:15;;;;;;;15.23;11.07;;;;;;;-145.69;100.00;71386.47;5072934;28;20484;-76
2022/05/05 11:55:44;;;;;;;18.05;11.07;;;;;;;-145.69;100.00;71414.34;5074189;28;20205;-76
2022/05/05 11:58:15;;;;;;;15.05;10.30;;;;;;;-145.69;100.00;71416.31;5073727;28;20230;-76
2022/05/05 12:03:25;;;;;;;17.23;11.18;;;;;;;-145.69;100.00;71513.81;5052896;28;20206;-75